sensor_id;sensor_type;location;lat;lon;timestamp;P1;durP1;ratioP1;P2;durP2;ratioP2
59336;SDS011;45115;52.002;4.686;2023-08-21T00:00:08;7.30;;;3.13;;
59336;SDS011;45115;52.002;4.686;2023-08-21T00:02:39;6.13;;;3.65;;
59336;SDS011;45115;52.002;4.686;2023-08-21T00:05:06;8.65;;;3.83;;
59336;SDS011;45115;52.002;4.686;2023-08-21T00:07:34;7.63;;;3.65;;
59336;SDS011;45115;52.002;4.686;2023-08-21T00:10:01;7.70;;;3.97;;
59336;SDS011;45115;52.002;4.686;2023-08-21T00:12:27;7.45;;;3.53;;
59336;SDS011;45115;52.002;4.686;2023-08-21T00:14:54;6.20;;;3.83;;
59336;SDS011;45115;52.002;4.686;2023-08-21T00:17:21;7.53;;;3.40;;
59336;SDS011;45115;52.002;4.686;2023-08-21T00:19:49;8.05;;;3.25;;
59336;SDS011;45115;52.002;4.686;2023-08-21T00:22:16;5.97;;;3.45;;
59336;SDS011;45115;52.002;4.686;2023-08-21T00:24:42;8.18;;;3.47;;
59336;SDS011;45115;52.002;4.686;2023-08-21T00:27:09;5.15;;;3.08;;
59336;SDS011;45115;52.002;4.686;2023-08-21T00:29:36;8.30;;;3.65;;
59336;SDS011;45115;52.002;4.686;2023-08-21T00:32:03;6.95;;;3.55;;
59336;SDS011;45115;52.002;4.686;2023-08-21T00:34:32;5.18;;;3.42;;
59336;SDS011;45115;52.002;4.686;2023-08-21T00:37:01;5.60;;;3.35;;
59336;SDS011;45115;52.002;4.686;2023-08-21T00:39:28;7.68;;;3.75;;
59336;SDS011;45115;52.002;4.686;2023-08-21T00:41:54;6.80;;;3.00;;
59336;SDS011;45115;52.002;4.686;2023-08-21T00:44:21;9.77;;;3.70;;
59336;SDS011;45115;52.002;4.686;2023-08-21T00:46:48;6.80;;;3.65;;
59336;SDS011;45115;52.002;4.686;2023-08-21T00:49:15;5.90;;;3.30;;
59336;SDS011;45115;52.002;4.686;2023-08-21T00:51:42;8.07;;;3.65;;
59336;SDS011;45115;52.002;4.686;2023-08-21T00:54:12;6.13;;;3.67;;
59336;SDS011;45115;52.002;4.686;2023-08-21T00:56:38;5.95;;;3.63;;
59336;SDS011;45115;52.002;4.686;2023-08-21T00:59:05;9.85;;;4.30;;
59336;SDS011;45115;52.002;4.686;2023-08-21T01:01:32;7.13;;;3.90;;
59336;SDS011;45115;52.002;4.686;2023-08-21T01:04:01;8.48;;;3.65;;
59336;SDS011;45115;52.002;4.686;2023-08-21T01:06:29;5.15;;;3.17;;
59336;SDS011;45115;52.002;4.686;2023-08-21T01:08:57;6.47;;;3.90;;
59336;SDS011;45115;52.002;4.686;2023-08-21T01:11:31;6.38;;;3.60;;
59336;SDS011;45115;52.002;4.686;2023-08-21T01:14:09;6.30;;;3.50;;
59336;SDS011;45115;52.002;4.686;2023-08-21T01:16:47;8.20;;;4.30;;
59336;SDS011;45115;52.002;4.686;2023-08-21T01:19:22;6.72;;;3.75;;
59336;SDS011;45115;52.002;4.686;2023-08-21T01:21:57;8.38;;;3.60;;
59336;SDS011;45115;52.002;4.686;2023-08-21T01:24:26;7.65;;;3.85;;
59336;SDS011;45115;52.002;4.686;2023-08-21T01:26:52;8.32;;;3.83;;
59336;SDS011;45115;52.002;4.686;2023-08-21T01:29:19;10.57;;;4.20;;
59336;SDS011;45115;52.002;4.686;2023-08-21T01:31:47;8.13;;;3.80;;
59336;SDS011;45115;52.002;4.686;2023-08-21T01:34:20;5.93;;;3.70;;
59336;SDS011;45115;52.002;4.686;2023-08-21T01:36:48;7.90;;;3.50;;
59336;SDS011;45115;52.002;4.686;2023-08-21T01:39:15;7.28;;;3.50;;
59336;SDS011;45115;52.002;4.686;2023-08-21T01:41:43;6.25;;;3.38;;
59336;SDS011;45115;52.002;4.686;2023-08-21T01:44:10;7.45;;;4.00;;
59336;SDS011;45115;52.002;4.686;2023-08-21T01:46:37;8.05;;;3.88;;
59336;SDS011;45115;52.002;4.686;2023-08-21T01:49:03;6.43;;;3.53;;
59336;SDS011;45115;52.002;4.686;2023-08-21T01:51:30;6.60;;;3.65;;
59336;SDS011;45115;52.002;4.686;2023-08-21T01:53:57;8.70;;;4.50;;
59336;SDS011;45115;52.002;4.686;2023-08-21T01:56:23;7.38;;;3.88;;
59336;SDS011;45115;52.002;4.686;2023-08-21T01:58:51;5.68;;;3.80;;
59336;SDS011;45115;52.002;4.686;2023-08-21T02:01:18;7.72;;;3.80;;
59336;SDS011;45115;52.002;4.686;2023-08-21T02:03:45;6.47;;;3.40;;
59336;SDS011;45115;52.002;4.686;2023-08-21T02:06:12;6.75;;;3.60;;
59336;SDS011;45115;52.002;4.686;2023-08-21T02:08:39;7.45;;;3.60;;
59336;SDS011;45115;52.002;4.686;2023-08-21T02:11:05;5.82;;;3.50;;
59336;SDS011;45115;52.002;4.686;2023-08-21T02:13:34;6.68;;;3.55;;
59336;SDS011;45115;52.002;4.686;2023-08-21T02:16:02;7.80;;;3.33;;
59336;SDS011;45115;52.002;4.686;2023-08-21T02:18:29;9.40;;;4.00;;
59336;SDS011;45115;52.002;4.686;2023-08-21T02:20:56;7.40;;;3.17;;
59336;SDS011;45115;52.002;4.686;2023-08-21T02:23:23;6.63;;;3.42;;
59336;SDS011;45115;52.002;4.686;2023-08-21T02:25:50;6.38;;;3.45;;
59336;SDS011;45115;52.002;4.686;2023-08-21T02:28:17;7.28;;;3.80;;
59336;SDS011;45115;52.002;4.686;2023-08-21T02:30:46;6.15;;;4.13;;
59336;SDS011;45115;52.002;4.686;2023-08-21T02:33:14;5.88;;;3.58;;
59336;SDS011;45115;52.002;4.686;2023-08-21T02:35:43;7.57;;;4.22;;
59336;SDS011;45115;52.002;4.686;2023-08-21T02:38:09;8.30;;;3.75;;
59336;SDS011;45115;52.002;4.686;2023-08-21T02:40:36;7.28;;;3.63;;
59336;SDS011;45115;52.002;4.686;2023-08-21T02:43:03;6.97;;;3.58;;
59336;SDS011;45115;52.002;4.686;2023-08-21T02:45:31;6.43;;;3.20;;
59336;SDS011;45115;52.002;4.686;2023-08-21T02:47:58;5.68;;;3.83;;
59336;SDS011;45115;52.002;4.686;2023-08-21T02:50:26;7.97;;;3.58;;
59336;SDS011;45115;52.002;4.686;2023-08-21T02:52:53;7.43;;;3.60;;
59336;SDS011;45115;52.002;4.686;2023-08-21T02:55:19;6.25;;;3.70;;
59336;SDS011;45115;52.002;4.686;2023-08-21T02:57:46;7.43;;;3.63;;
59336;SDS011;45115;52.002;4.686;2023-08-21T03:00:14;7.40;;;3.85;;
59336;SDS011;45115;52.002;4.686;2023-08-21T03:02:41;5.93;;;3.58;;
59336;SDS011;45115;52.002;4.686;2023-08-21T03:05:08;7.32;;;3.58;;
59336;SDS011;45115;52.002;4.686;2023-08-21T03:07:37;6.50;;;3.40;;
59336;SDS011;45115;52.002;4.686;2023-08-21T03:10:04;8.10;;;4.15;;
59336;SDS011;45115;52.002;4.686;2023-08-21T03:12:32;5.40;;;3.20;;
59336;SDS011;45115;52.002;4.686;2023-08-21T03:14:59;7.35;;;3.92;;
59336;SDS011;45115;52.002;4.686;2023-08-21T03:17:25;8.05;;;3.78;;
59336;SDS011;45115;52.002;4.686;2023-08-21T03:19:52;8.10;;;4.13;;
59336;SDS011;45115;52.002;4.686;2023-08-21T03:22:19;8.35;;;4.13;;
59336;SDS011;45115;52.002;4.686;2023-08-21T03:24:47;7.35;;;3.72;;
59336;SDS011;45115;52.002;4.686;2023-08-21T03:27:14;7.65;;;3.80;;
59336;SDS011;45115;52.002;4.686;2023-08-21T03:29:41;7.13;;;4.05;;
59336;SDS011;45115;52.002;4.686;2023-08-21T03:32:13;8.73;;;4.32;;
59336;SDS011;45115;52.002;4.686;2023-08-21T03:34:40;7.40;;;3.85;;
59336;SDS011;45115;52.002;4.686;2023-08-21T03:37:07;7.35;;;3.75;;
59336;SDS011;45115;52.002;4.686;2023-08-21T03:39:34;7.00;;;3.70;;
59336;SDS011;45115;52.002;4.686;2023-08-21T03:42:03;8.95;;;4.20;;
59336;SDS011;45115;52.002;4.686;2023-08-21T03:44:30;8.90;;;3.90;;
59336;SDS011;45115;52.002;4.686;2023-08-21T03:46:58;9.27;;;4.10;;
59336;SDS011;45115;52.002;4.686;2023-08-21T03:49:25;9.35;;;4.47;;
59336;SDS011;45115;52.002;4.686;2023-08-21T03:51:53;9.43;;;4.78;;
59336;SDS011;45115;52.002;4.686;2023-08-21T03:54:20;10.65;;;4.55;;
59336;SDS011;45115;52.002;4.686;2023-08-21T03:56:46;8.50;;;5.00;;
59336;SDS011;45115;52.002;4.686;2023-08-21T03:59:14;7.95;;;4.20;;
59336;SDS011;45115;52.002;4.686;2023-08-21T04:01:41;8.57;;;4.38;;
59336;SDS011;45115;52.002;4.686;2023-08-21T04:04:09;10.27;;;4.57;;
59336;SDS011;45115;52.002;4.686;2023-08-21T04:06:36;7.57;;;4.30;;
59336;SDS011;45115;52.002;4.686;2023-08-21T04:09:03;11.70;;;4.65;;
59336;SDS011;45115;52.002;4.686;2023-08-21T04:11:31;8.82;;;4.43;;
59336;SDS011;45115;52.002;4.686;2023-08-21T04:13:58;9.63;;;4.00;;
59336;SDS011;45115;52.002;4.686;2023-08-21T04:16:28;6.72;;;4.07;;
59336;SDS011;45115;52.002;4.686;2023-08-21T04:18:56;6.22;;;3.50;;
59336;SDS011;45115;52.002;4.686;2023-08-21T04:21:23;6.20;;;3.70;;
59336;SDS011;45115;52.002;4.686;2023-08-21T04:23:50;9.55;;;3.88;;
59336;SDS011;45115;52.002;4.686;2023-08-21T04:26:17;6.40;;;3.60;;
59336;SDS011;45115;52.002;4.686;2023-08-21T04:28:43;5.85;;;3.38;;
59336;SDS011;45115;52.002;4.686;2023-08-21T04:31:10;7.35;;;4.28;;
59336;SDS011;45115;52.002;4.686;2023-08-21T04:33:38;11.00;;;4.05;;
59336;SDS011;45115;52.002;4.686;2023-08-21T04:36:05;8.35;;;3.88;;
59336;SDS011;45115;52.002;4.686;2023-08-21T04:38:33;9.88;;;4.53;;
59336;SDS011;45115;52.002;4.686;2023-08-21T04:41:06;7.63;;;4.10;;
59336;SDS011;45115;52.002;4.686;2023-08-21T04:43:35;7.53;;;3.75;;
59336;SDS011;45115;52.002;4.686;2023-08-21T04:46:03;8.13;;;3.97;;
59336;SDS011;45115;52.002;4.686;2023-08-21T04:48:30;6.57;;;3.38;;
59336;SDS011;45115;52.002;4.686;2023-08-21T04:50:58;7.93;;;4.05;;
59336;SDS011;45115;52.002;4.686;2023-08-21T04:53:25;9.77;;;3.83;;
59336;SDS011;45115;52.002;4.686;2023-08-21T04:55:52;6.25;;;3.70;;
59336;SDS011;45115;52.002;4.686;2023-08-21T04:58:19;6.00;;;3.15;;
59336;SDS011;45115;52.002;4.686;2023-08-21T05:00:45;6.55;;;3.47;;
59336;SDS011;45115;52.002;4.686;2023-08-21T05:03:12;6.53;;;3.70;;
59336;SDS011;45115;52.002;4.686;2023-08-21T05:05:51;7.28;;;3.38;;
59336;SDS011;45115;52.002;4.686;2023-08-21T05:08:20;8.57;;;3.90;;
59336;SDS011;45115;52.002;4.686;2023-08-21T05:10:47;6.35;;;4.20;;
59336;SDS011;45115;52.002;4.686;2023-08-21T05:13:13;10.90;;;4.85;;
59336;SDS011;45115;52.002;4.686;2023-08-21T05:15:43;9.18;;;4.40;;
59336;SDS011;45115;52.002;4.686;2023-08-21T05:18:09;9.15;;;4.38;;
59336;SDS011;45115;52.002;4.686;2023-08-21T05:20:36;8.20;;;4.13;;
59336;SDS011;45115;52.002;4.686;2023-08-21T05:23:03;7.88;;;4.30;;
59336;SDS011;45115;52.002;4.686;2023-08-21T05:25:32;6.00;;;3.85;;
59336;SDS011;45115;52.002;4.686;2023-08-21T05:27:59;7.28;;;4.03;;
59336;SDS011;45115;52.002;4.686;2023-08-21T05:30:26;8.30;;;4.00;;
59336;SDS011;45115;52.002;4.686;2023-08-21T05:32:53;7.97;;;4.18;;
59336;SDS011;45115;52.002;4.686;2023-08-21T05:35:19;8.95;;;4.32;;
59336;SDS011;45115;52.002;4.686;2023-08-21T05:37:46;8.48;;;4.75;;
59336;SDS011;45115;52.002;4.686;2023-08-21T05:40:13;9.07;;;4.50;;
59336;SDS011;45115;52.002;4.686;2023-08-21T05:42:41;10.50;;;5.00;;
59336;SDS011;45115;52.002;4.686;2023-08-21T05:45:08;9.05;;;4.70;;
59336;SDS011;45115;52.002;4.686;2023-08-21T05:47:36;9.75;;;4.70;;
59336;SDS011;45115;52.002;4.686;2023-08-21T05:50:04;13.55;;;6.00;;
59336;SDS011;45115;52.002;4.686;2023-08-21T05:52:31;10.23;;;5.18;;
59336;SDS011;45115;52.002;4.686;2023-08-21T05:54:57;10.25;;;5.15;;
59336;SDS011;45115;52.002;4.686;2023-08-21T05:57:24;10.00;;;5.25;;
59336;SDS011;45115;52.002;4.686;2023-08-21T05:59:53;10.25;;;5.28;;
59336;SDS011;45115;52.002;4.686;2023-08-21T06:02:20;9.70;;;4.90;;
59336;SDS011;45115;52.002;4.686;2023-08-21T06:04:47;9.02;;;5.07;;
59336;SDS011;45115;52.002;4.686;2023-08-21T06:07:14;9.70;;;4.85;;
59336;SDS011;45115;52.002;4.686;2023-08-21T06:09:41;8.73;;;4.72;;
59336;SDS011;45115;52.002;4.686;2023-08-21T06:12:09;9.52;;;4.68;;
59336;SDS011;45115;52.002;4.686;2023-08-21T06:14:38;10.45;;;4.22;;
59336;SDS011;45115;52.002;4.686;2023-08-21T06:17:08;9.15;;;4.75;;
59336;SDS011;45115;52.002;4.686;2023-08-21T06:19:36;12.48;;;4.63;;
59336;SDS011;45115;52.002;4.686;2023-08-21T06:22:02;7.15;;;3.90;;
59336;SDS011;45115;52.002;4.686;2023-08-21T06:24:29;9.02;;;3.97;;
59336;SDS011;45115;52.002;4.686;2023-08-21T06:27:01;12.48;;;5.70;;
59336;SDS011;45115;52.002;4.686;2023-08-21T06:29:28;17.67;;;8.32;;
59336;SDS011;45115;52.002;4.686;2023-08-21T06:31:54;12.93;;;5.90;;
59336;SDS011;45115;52.002;4.686;2023-08-21T06:34:24;10.82;;;4.47;;
59336;SDS011;45115;52.002;4.686;2023-08-21T06:36:51;8.90;;;4.18;;
59336;SDS011;45115;52.002;4.686;2023-08-21T06:39:17;9.35;;;4.55;;
59336;SDS011;45115;52.002;4.686;2023-08-21T06:41:44;9.05;;;4.20;;
59336;SDS011;45115;52.002;4.686;2023-08-21T06:44:17;6.88;;;4.25;;
59336;SDS011;45115;52.002;4.686;2023-08-21T06:46:43;8.45;;;4.00;;
59336;SDS011;45115;52.002;4.686;2023-08-21T06:49:10;7.93;;;4.30;;
59336;SDS011;45115;52.002;4.686;2023-08-21T06:51:38;8.63;;;3.97;;
59336;SDS011;45115;52.002;4.686;2023-08-21T06:54:05;8.05;;;3.80;;
59336;SDS011;45115;52.002;4.686;2023-08-21T06:56:31;9.32;;;4.60;;
59336;SDS011;45115;52.002;4.686;2023-08-21T06:58:58;14.05;;;4.82;;
59336;SDS011;45115;52.002;4.686;2023-08-21T07:01:25;11.30;;;4.57;;
59336;SDS011;45115;52.002;4.686;2023-08-21T07:03:52;10.90;;;4.78;;
59336;SDS011;45115;52.002;4.686;2023-08-21T07:06:18;6.50;;;3.70;;
59336;SDS011;45115;52.002;4.686;2023-08-21T07:08:46;9.75;;;3.80;;
59336;SDS011;45115;52.002;4.686;2023-08-21T07:11:13;11.27;;;4.35;;
59336;SDS011;45115;52.002;4.686;2023-08-21T07:13:42;10.30;;;4.72;;
59336;SDS011;45115;52.002;4.686;2023-08-21T07:16:09;10.05;;;4.50;;
59336;SDS011;45115;52.002;4.686;2023-08-21T07:18:35;10.02;;;4.60;;
59336;SDS011;45115;52.002;4.686;2023-08-21T07:21:02;13.70;;;5.00;;
59336;SDS011;45115;52.002;4.686;2023-08-21T07:23:29;9.88;;;4.78;;
59336;SDS011;45115;52.002;4.686;2023-08-21T07:25:58;11.43;;;5.82;;
59336;SDS011;45115;52.002;4.686;2023-08-21T07:28:25;10.80;;;4.75;;
59336;SDS011;45115;52.002;4.686;2023-08-21T07:30:54;13.35;;;5.30;;
59336;SDS011;45115;52.002;4.686;2023-08-21T07:33:21;11.77;;;5.45;;
59336;SDS011;45115;52.002;4.686;2023-08-21T07:35:56;11.07;;;5.40;;
59336;SDS011;45115;52.002;4.686;2023-08-21T07:38:23;10.23;;;5.22;;
59336;SDS011;45115;52.002;4.686;2023-08-21T07:40:50;12.15;;;4.75;;
59336;SDS011;45115;52.002;4.686;2023-08-21T07:43:18;10.23;;;4.30;;
59336;SDS011;45115;52.002;4.686;2023-08-21T07:45:44;14.13;;;4.53;;
59336;SDS011;45115;52.002;4.686;2023-08-21T07:48:11;9.68;;;4.45;;
59336;SDS011;45115;52.002;4.686;2023-08-21T07:50:38;10.20;;;3.90;;
59336;SDS011;45115;52.002;4.686;2023-08-21T07:53:04;7.43;;;3.70;;
59336;SDS011;45115;52.002;4.686;2023-08-21T07:55:31;10.35;;;4.05;;
59336;SDS011;45115;52.002;4.686;2023-08-21T07:57:58;9.45;;;4.18;;
59336;SDS011;45115;52.002;4.686;2023-08-21T08:00:26;7.97;;;3.42;;
59336;SDS011;45115;52.002;4.686;2023-08-21T08:02:53;8.63;;;3.47;;
59336;SDS011;45115;52.002;4.686;2023-08-21T08:05:19;9.45;;;3.53;;
59336;SDS011;45115;52.002;4.686;2023-08-21T08:07:46;7.25;;;3.70;;
59336;SDS011;45115;52.002;4.686;2023-08-21T08:10:13;8.13;;;3.55;;
59336;SDS011;45115;52.002;4.686;2023-08-21T08:12:41;10.68;;;4.18;;
59336;SDS011;45115;52.002;4.686;2023-08-21T08:15:09;8.30;;;3.20;;
59336;SDS011;45115;52.002;4.686;2023-08-21T08:17:37;8.43;;;3.22;;
59336;SDS011;45115;52.002;4.686;2023-08-21T08:20:04;10.55;;;3.72;;
59336;SDS011;45115;52.002;4.686;2023-08-21T08:22:31;10.75;;;3.67;;
59336;SDS011;45115;52.002;4.686;2023-08-21T08:24:58;8.45;;;3.88;;
59336;SDS011;45115;52.002;4.686;2023-08-21T08:27:25;7.38;;;3.42;;
59336;SDS011;45115;52.002;4.686;2023-08-21T08:29:52;9.65;;;3.63;;
59336;SDS011;45115;52.002;4.686;2023-08-21T08:32:18;9.43;;;3.70;;
59336;SDS011;45115;52.002;4.686;2023-08-21T08:34:46;7.70;;;3.25;;
59336;SDS011;45115;52.002;4.686;2023-08-21T08:37:13;7.88;;;3.03;;
59336;SDS011;45115;52.002;4.686;2023-08-21T08:39:40;7.53;;;3.33;;
59336;SDS011;45115;52.002;4.686;2023-08-21T08:42:06;11.45;;;3.80;;
59336;SDS011;45115;52.002;4.686;2023-08-21T08:44:34;11.10;;;4.22;;
59336;SDS011;45115;52.002;4.686;2023-08-21T08:47:02;11.27;;;3.60;;
59336;SDS011;45115;52.002;4.686;2023-08-21T08:49:29;7.80;;;3.80;;
59336;SDS011;45115;52.002;4.686;2023-08-21T08:51:58;10.70;;;4.18;;
59336;SDS011;45115;52.002;4.686;2023-08-21T08:54:26;10.93;;;3.58;;
59336;SDS011;45115;52.002;4.686;2023-08-21T08:56:53;11.65;;;3.90;;
59336;SDS011;45115;52.002;4.686;2023-08-21T08:59:20;9.52;;;3.53;;
59336;SDS011;45115;52.002;4.686;2023-08-21T09:01:47;8.93;;;3.45;;
59336;SDS011;45115;52.002;4.686;2023-08-21T09:04:14;8.95;;;3.20;;
59336;SDS011;45115;52.002;4.686;2023-08-21T09:06:41;9.98;;;3.72;;
59336;SDS011;45115;52.002;4.686;2023-08-21T09:09:09;5.95;;;3.10;;
59336;SDS011;45115;52.002;4.686;2023-08-21T09:11:41;10.48;;;3.33;;
59336;SDS011;45115;52.002;4.686;2023-08-21T09:14:09;7.43;;;2.55;;
59336;SDS011;45115;52.002;4.686;2023-08-21T09:16:36;7.90;;;3.03;;
59336;SDS011;45115;52.002;4.686;2023-08-21T09:19:03;8.52;;;2.88;;
59336;SDS011;45115;52.002;4.686;2023-08-21T09:21:30;5.10;;;2.25;;
59336;SDS011;45115;52.002;4.686;2023-08-21T09:23:57;8.48;;;2.50;;
59336;SDS011;45115;52.002;4.686;2023-08-21T09:26:26;9.50;;;2.92;;
59336;SDS011;45115;52.002;4.686;2023-08-21T09:28:57;4.00;;;2.13;;
59336;SDS011;45115;52.002;4.686;2023-08-21T09:31:29;4.00;;;2.97;;
59336;SDS011;45115;52.002;4.686;2023-08-21T09:33:56;4.72;;;2.17;;
59336;SDS011;45115;52.002;4.686;2023-08-21T09:36:26;6.95;;;2.38;;
59336;SDS011;45115;52.002;4.686;2023-08-21T09:38:52;6.55;;;2.08;;
59336;SDS011;45115;52.002;4.686;2023-08-21T09:41:19;5.05;;;2.38;;
59336;SDS011;45115;52.002;4.686;2023-08-21T09:43:48;5.53;;;2.15;;
59336;SDS011;45115;52.002;4.686;2023-08-21T09:46:15;5.22;;;2.30;;
59336;SDS011;45115;52.002;4.686;2023-08-21T09:48:43;5.63;;;2.40;;
59336;SDS011;45115;52.002;4.686;2023-08-21T09:51:10;4.50;;;2.35;;
59336;SDS011;45115;52.002;4.686;2023-08-21T09:53:37;6.07;;;2.70;;
59336;SDS011;45115;52.002;4.686;2023-08-21T09:56:05;6.00;;;2.55;;
59336;SDS011;45115;52.002;4.686;2023-08-21T09:58:32;7.25;;;2.30;;
59336;SDS011;45115;52.002;4.686;2023-08-21T10:01:02;4.38;;;2.33;;
59336;SDS011;45115;52.002;4.686;2023-08-21T10:03:36;7.25;;;2.80;;
59336;SDS011;45115;52.002;4.686;2023-08-21T10:06:05;5.68;;;2.30;;
59336;SDS011;45115;52.002;4.686;2023-08-21T10:08:33;3.83;;;2.08;;
59336;SDS011;45115;52.002;4.686;2023-08-21T10:11:04;5.85;;;2.47;;
59336;SDS011;45115;52.002;4.686;2023-08-21T10:13:31;5.68;;;2.35;;
59336;SDS011;45115;52.002;4.686;2023-08-21T10:15:59;5.65;;;2.33;;
59336;SDS011;45115;52.002;4.686;2023-08-21T10:18:31;3.83;;;2.30;;
59336;SDS011;45115;52.002;4.686;2023-08-21T10:21:10;6.78;;;2.45;;
59336;SDS011;45115;52.002;4.686;2023-08-21T10:23:38;5.07;;;2.10;;
59336;SDS011;45115;52.002;4.686;2023-08-21T23:54:26;14.07;;;7.00;;
59336;SDS011;45115;52.002;4.686;2023-08-21T23:56:53;16.60;;;8.07;;
59336;SDS011;45115;52.002;4.686;2023-08-21T23:59:19;16.88;;;8.60;;
